Accueil
METAR-TAF:

METAR-TAF

Aéroports :

Tri-City Airport

Parsons, Kansas, États-Unis

latitude: 37-19-40N, longitude: 095-30-15W, altitude: 274 m

Observation

Le bulletin a été fait il y a 18 minutes, à 17:19 UTC
Vent 5 kt de ouest
Température 22°C
Humidité 88%
Pression 1018 hPa
Visibilité: 16.1 km
Nuages épars à une hauteur de 1500 ft
Nuages épars à une hauteur de 2400 ft
Nuages fragmentés à une hauteur de 5500 ft

METAR: KPPF 201719Z AUTO 26005KT 10SM SCT015 SCT024 BKN055 22/20 A3007 RMK AO2 T02220200

Heure: 12:37 (17:37 UTC)


TAF: absent

Observations et prévisions météorologiques de plus de 4000 aéroports (messages METAR et TAF).

Les stations disponibles sont représentées par des disques jaunes et rouges sur la carte.

Passer la souris dessus pour voir le nom de la station.

Cliquer dessus pour voir les observations et prévisions météorologiques.

Pour changer de carte: cliquez sur les boutons verts avec une croix noire pour zoomer, sur le bouton vert avec un tiret pour effectuer un zoom arrière, ou sur les flèches vertes pour les cartes adjacentes.


METAR-TAF: